Yorktown Heights, New York
Current Conditions -  °F | °C
As of 12:56 PM on Saturday 20 Dec 2014 (Local Time) from KHPN Reporting Station
Broken Clouds Broken Clouds  
Wind Chill: 26°   Ceiling: 2700
Heat Index: 31°   Visibility: 10mi
Dew Point: 20°   Wind: 5mph
Humidity: 64%   Direction: 300°WNW
Pressure: 30.24"   Gusts: NA
Location:  41.27°N, 73.78°W
Report Text: KHPN 201756Z 30004KT 10SM BKN027 M01/M07 A3024 RMK AO2 SLP249 60000 T10061067 11006 21022 57010
Loading
Personal Weather Stations






























Interactive Weather Map New forecast layout! Learn more

10-Day Weather Forecast

Advertisements
Track Severe Weather on mobile